Time;durP1;ratioP1;P1;durP2;ratioP2;P2;SDS_P1;SDS_P2;PMS_P1;PMS_P2;Temp;Humidity;BMP_temperature;BMP_pressure;BME280_temperature;BME280_humidity;BME280_pressure;Samples;Min_cycle;Max_cycle;Signal;HPM_P1;HPM_P2
2021/03/02 00:01:21;;;;;;;13.83;12.57;;;;;;;;;;5095266;28;20485;-9
2021/03/02 00:06:24;;;;;;;15.50;13.93;;;;;;;;;;5105078;28;20460;-9
2021/03/02 00:08:51;;;;;;;14.83;13.47;;;;;;;;;;5094853;28;20440;-9
2021/03/02 00:11:21;;;;;;;15.07;13.73;;;;;;;;;;5096514;28;20439;-9
2021/03/02 00:13:49;;;;;;;13.00;12.00;;;;;;;;;;5093885;28;20638;-10
2021/03/02 00:19:22;;;;;;;14.00;12.73;;;;;;;;;;5094516;28;20451;-10
2021/03/02 00:21:52;;;;;;;15.83;14.37;;;;;;;;;;5094875;28;20546;-10
2021/03/02 00:24:27;;;;;;;17.07;13.87;;;;;;;;;;5096086;28;20864;-10
2021/03/02 00:26:57;;;;;;;15.00;13.60;;;;;;;;;;5107804;28;21212;-9
2021/03/02 00:29:24;;;;;;;13.03;12.03;;;;;;;;;;5113500;28;20494;-10
2021/03/02 00:31:53;;;;;;;14.77;13.50;;;;;;;;;;5116518;28;20439;-11
2021/03/02 00:34:21;;;;;;;13.50;12.40;;;;;;;;;;5115679;28;20443;-11
2021/03/02 00:36:49;;;;;;;14.77;13.57;;;;;;;;;;5116483;28;20547;-11
2021/03/02 00:39:19;;;;;;;14.87;13.70;;;;;;;;;;5115915;28;20439;-11
2021/03/02 00:41:46;;;;;;;14.00;12.87;;;;;;;;;;5116007;28;20823;-11
2021/03/02 00:44:14;;;;;;;13.63;12.60;;;;;;;;;;5116684;28;20465;-11
2021/03/02 00:46:42;;;;;;;15.07;13.77;;;;;;;;;;5097900;28;20484;-11
2021/03/02 00:49:11;;;;;;;13.63;12.43;;;;;;;;;;5096348;28;20446;-12
2021/03/02 00:51:38;;;;;;;13.83;12.73;;;;;;;;;;5114705;28;20557;-11
2021/03/02 00:54:06;;;;;;;12.90;11.80;;;;;;;;;;5112856;28;20435;-12
2021/03/02 00:56:34;;;;;;;14.20;12.80;;;;;;;;;;5096476;28;20784;-12
2021/03/02 00:59:03;;;;;;;13.00;11.83;;;;;;;;;;5113565;28;21017;-10
2021/03/02 01:01:33;;;;;;;13.30;12.00;;;;;;;;;;5095935;28;20481;-12
2021/03/02 01:04:05;;;;;;;13.83;12.53;;;;;;;;;;5095831;28;20536;-11
2021/03/02 01:06:32;;;;;;;12.00;11.20;;;;;;;;;;5093283;28;20738;-11
2021/03/02 01:09:00;;;;;;;13.97;12.67;;;;;;;;;;5076014;28;20482;-12
2021/03/02 01:11:30;;;;;;;12.90;11.77;;;;;;;;;;5093112;28;21081;-11
2021/03/02 01:13:59;;;;;;;12.10;11.10;;;;;;;;;;5094454;28;20436;-10
2021/03/02 01:16:26;;;;;;;12.93;11.10;;;;;;;;;;5099331;28;20501;-10
2021/03/02 01:18:56;;;;;;;12.60;11.50;;;;;;;;;;5116340;28;20925;-10
2021/03/02 01:21:24;;;;;;;13.80;12.67;;;;;;;;;;5113315;28;20501;-10
2021/03/02 01:23:54;;;;;;;15.07;13.50;;;;;;;;;;5116223;28;20446;-10
2021/03/02 01:26:23;;;;;;;14.60;13.17;;;;;;;;;;5108412;28;21104;-10
2021/03/02 01:28:51;;;;;;;14.20;12.10;;;;;;;;;;5094999;28;20436;-10
2021/03/02 01:31:24;;;;;;;13.60;12.40;;;;;;;;;;5093775;28;20500;-10
2021/03/02 01:33:52;;;;;;;13.57;12.43;;;;;;;;;;5094927;28;20827;-10
2021/03/02 01:36:20;;;;;;;14.17;13.00;;;;;;;;;;5093825;28;20949;-10
2021/03/02 01:38:51;;;;;;;13.80;12.60;;;;;;;;;;5094237;28;20467;-10
2021/03/02 01:41:18;;;;;;;14.73;13.40;;;;;;;;;;5094600;28;20454;-11
2021/03/02 01:43:46;;;;;;;12.40;11.50;;;;;;;;;;5095224;28;20437;-10
2021/03/02 01:46:17;;;;;;;13.30;11.83;;;;;;;;;;5110640;28;20491;-9
2021/03/02 01:48:45;;;;;;;13.63;12.43;;;;;;;;;;5113131;28;20549;-9
2021/03/02 01:51:14;;;;;;;14.53;13.30;;;;;;;;;;5113567;28;20443;-9
2021/03/02 01:53:43;;;;;;;13.30;12.10;;;;;;;;;;5113970;28;20453;-10
2021/03/02 01:56:12;;;;;;;14.63;13.43;;;;;;;;;;5113377;28;20463;-10
2021/03/02 01:58:40;;;;;;;14.10;12.80;;;;;;;;;;5113878;28;20471;-9
2021/03/02 02:01:10;;;;;;;14.90;13.30;;;;;;;;;;5113998;28;20461;-10
2021/03/02 02:03:41;;;;;;;15.37;13.83;;;;;;;;;;5115052;28;20467;-10
2021/03/02 02:06:11;;;;;;;14.53;13.33;;;;;;;;;;5107810;28;20745;-11
2021/03/02 02:08:46;;;;;;;15.13;13.83;;;;;;;;;;5093442;28;20448;-10
2021/03/02 02:11:19;;;;;;;14.77;13.30;;;;;;;;;;5094154;28;20550;-10
2021/03/02 02:13:52;;;;;;;14.77;13.27;;;;;;;;;;5093544;28;20440;-9
2021/03/02 02:16:24;;;;;;;15.57;14.07;;;;;;;;;;5106687;28;20524;-10
2021/03/02 02:18:53;;;;;;;14.80;13.47;;;;;;;;;;5112691;28;20922;-10
2021/03/02 02:21:23;;;;;;;14.53;13.23;;;;;;;;;;5114280;28;20707;-11
2021/03/02 02:24:03;;;;;;;14.50;12.87;;;;;;;;;;5113911;28;20503;-11
2021/03/02 02:26:53;;;;;;;15.83;14.57;;;;;;;;;;5113944;28;20446;-10
2021/03/02 02:29:23;;;;;;;14.33;13.27;;;;;;;;;;5110306;28;20462;-10
2021/03/02 02:31:55;;;;;;;15.63;14.03;;;;;;;;;;5115481;28;20439;-11
2021/03/02 02:34:24;;;;;;;13.30;12.30;;;;;;;;;;5113553;28;20699;-11
2021/03/02 02:36:51;;;;;;;15.13;13.80;;;;;;;;;;5113481;28;20482;-11
2021/03/02 02:39:20;;;;;;;14.70;13.30;;;;;;;;;;5115189;28;20600;-11
2021/03/02 02:41:48;;;;;;;13.63;12.33;;;;;;;;;;5133712;27;20446;-10
2021/03/02 02:44:18;;;;;;;15.17;13.83;;;;;;;;;;5133448;27;20441;-10
2021/03/02 02:46:49;;;;;;;14.17;12.77;;;;;;;;;;5131579;27;20521;-9
2021/03/02 02:49:18;;;;;;;14.00;12.90;;;;;;;;;;5134549;28;20545;-10
2021/03/02 02:51:48;;;;;;;13.30;12.30;;;;;;;;;;5134326;28;20421;-10
2021/03/02 02:54:15;;;;;;;14.70;13.43;;;;;;;;;;5134273;28;20441;-10
2021/03/02 02:56:47;;;;;;;12.93;11.97;;;;;;;;;;5134422;28;20916;-10
2021/03/02 02:59:21;;;;;;;14.57;13.17;;;;;;;;;;5133126;28;20442;-10
2021/03/02 03:01:54;;;;;;;14.47;13.30;;;;;;;;;;5133200;28;20876;-11
2021/03/02 03:04:23;;;;;;;15.37;14.07;;;;;;;;;;5124872;28;20640;-9
2021/03/02 03:06:55;;;;;;;13.37;12.30;;;;;;;;;;5094242;28;20515;-10
2021/03/02 03:09:25;;;;;;;13.77;12.37;;;;;;;;;;5092287;28;20442;-10
2021/03/02 03:11:55;;;;;;;13.53;12.23;;;;;;;;;;5092796;28;20432;-11
2021/03/02 03:14:26;;;;;;;14.10;13.00;;;;;;;;;;5094074;28;20876;-11
2021/03/02 03:16:55;;;;;;;13.97;12.83;;;;;;;;;;5093375;28;20558;-9
2021/03/02 03:19:26;;;;;;;15.93;14.43;;;;;;;;;;5092636;28;20451;-10
2021/03/02 03:21:53;;;;;;;14.43;13.23;;;;;;;;;;5092270;28;20537;-10
2021/03/02 03:24:21;;;;;;;13.80;12.60;;;;;;;;;;5093219;28;20458;-10
2021/03/02 03:26:49;;;;;;;13.73;12.63;;;;;;;;;;5083334;28;20461;-11
2021/03/02 03:29:21;;;;;;;14.83;13.63;;;;;;;;;;5076122;28;20476;-10
2021/03/02 03:31:49;;;;;;;14.97;13.67;;;;;;;;;;5113426;28;20534;-10
2021/03/02 03:34:19;;;;;;;12.53;11.67;;;;;;;;;;5113636;28;20463;-10
2021/03/02 03:36:49;;;;;;;15.23;13.67;;;;;;;;;;5112599;28;20467;-12
2021/03/02 03:39:18;;;;;;;14.77;13.57;;;;;;;;;;5111953;28;20449;-10
2021/03/02 03:41:48;;;;;;;16.50;14.93;;;;;;;;;;5113033;28;20467;-10
2021/03/02 03:44:16;;;;;;;27.80;17.03;;;;;;;;;;5114756;28;20431;-11
2021/03/02 03:46:43;;;;;;;15.77;14.37;;;;;;;;;;5112583;28;21161;-11
2021/03/02 03:49:14;;;;;;;14.93;13.53;;;;;;;;;;5112689;28;20853;-11
2021/03/02 03:51:46;;;;;;;14.43;13.20;;;;;;;;;;5112220;28;20882;-10
2021/03/02 03:54:15;;;;;;;15.13;13.63;;;;;;;;;;5110299;28;20439;-10
2021/03/02 03:56:45;;;;;;;14.80;13.47;;;;;;;;;;5114490;28;20497;-10
2021/03/02 03:59:13;;;;;;;14.10;12.20;;;;;;;;;;5115852;28;20435;-10
2021/03/02 04:01:45;;;;;;;17.03;13.23;;;;;;;;;;5115094;28;20446;-11
2021/03/02 04:04:14;;;;;;;13.80;12.63;;;;;;;;;;5097162;28;20434;-10
2021/03/02 04:06:43;;;;;;;14.30;13.10;;;;;;;;;;5101208;28;20455;-10
2021/03/02 04:09:11;;;;;;;14.23;13.07;;;;;;;;;;5094117;28;20930;-10
2021/03/02 04:11:40;;;;;;;14.23;13.03;;;;;;;;;;5095050;28;20707;-11
2021/03/02 04:14:09;;;;;;;15.47;13.10;;;;;;;;;;5093584;28;20543;-11
2021/03/02 04:16:37;;;;;;;13.87;12.67;;;;;;;;;;5093072;28;20529;-11
2021/03/02 04:19:04;;;;;;;15.17;13.80;;;;;;;;;;5092276;28;20559;-11
2021/03/02 04:21:33;;;;;;;14.47;13.10;;;;;;;;;;5095606;28;20459;-10
2021/03/02 04:24:03;;;;;;;15.67;14.03;;;;;;;;;;5095747;28;20885;-10
2021/03/02 04:26:30;;;;;;;14.40;13.00;;;;;;;;;;5095704;28;20479;-10
2021/03/02 04:28:58;;;;;;;16.93;13.83;;;;;;;;;;5095455;28;20428;-11
2021/03/02 04:31:26;;;;;;;14.50;13.30;;;;;;;;;;5079007;28;20919;-10
2021/03/02 04:33:59;;;;;;;17.83;15.57;;;;;;;;;;5073163;28;20433;-11
2021/03/02 04:36:27;;;;;;;14.20;13.00;;;;;;;;;;5072914;28;20469;-9
2021/03/02 04:41:55;;;;;;;14.53;13.33;;;;;;;;;;5070637;28;20878;-12
2021/03/02 04:44:24;;;;;;;15.37;13.97;;;;;;;;;;5073850;28;20444;-10
2021/03/02 04:46:52;;;;;;;15.43;14.03;;;;;;;;;;5073437;28;20475;-9
2021/03/02 04:49:19;;;;;;;14.20;13.00;;;;;;;;;;5072389;28;20462;-10
2021/03/02 04:51:49;;;;;;;15.40;13.83;;;;;;;;;;5069513;28;20451;-9
2021/03/02 04:54:24;;;;;;;16.27;14.87;;;;;;;;;;5071236;28;20951;-10
2021/03/02 04:56:53;;;;;;;16.50;14.33;;;;;;;;;;5071915;28;21024;-11
2021/03/02 04:59:21;;;;;;;16.20;14.80;;;;;;;;;;5053217;28;20556;-10
2021/03/02 05:01:50;;;;;;;16.10;14.67;;;;;;;;;;5090106;28;20531;-11
2021/03/02 05:04:19;;;;;;;14.97;13.60;;;;;;;;;;5088183;28;20452;-11
2021/03/02 05:06:50;;;;;;;15.50;14.20;;;;;;;;;;5093043;28;20434;-10
2021/03/02 05:09:20;;;;;;;18.00;14.57;;;;;;;;;;5089676;28;20818;-10
2021/03/02 05:11:48;;;;;;;14.60;13.33;;;;;;;;;;5092940;28;20486;-9
2021/03/02 05:14:15;;;;;;;15.43;14.07;;;;;;;;;;5088963;28;20464;-10
2021/03/02 05:16:43;;;;;;;15.10;13.90;;;;;;;;;;5072580;28;20468;-11
2021/03/02 05:19:11;;;;;;;16.23;14.93;;;;;;;;;;5070842;28;20464;-10
2021/03/02 05:21:38;;;;;;;15.57;14.30;;;;;;;;;;5068106;28;20560;-10
2021/03/02 05:24:06;;;;;;;16.73;15.17;;;;;;;;;;5071453;28;20478;-11
2021/03/02 05:26:34;;;;;;;18.53;16.70;;;;;;;;;;5108501;28;20490;-10
2021/03/02 05:29:02;;;;;;;18.93;16.80;;;;;;;;;;5109323;28;20879;-10
2021/03/02 05:31:30;;;;;;;16.77;15.27;;;;;;;;;;5110059;28;20439;-10
2021/03/02 05:33:59;;;;;;;19.73;17.63;;;;;;;;;;5106986;28;20464;-10
2021/03/02 05:36:27;;;;;;;19.93;17.73;;;;;;;;;;5110334;28;20889;-11
2021/03/02 05:38:55;;;;;;;26.77;20.40;;;;;;;;;;5111031;28;20462;-9
2021/03/02 05:41:24;;;;;;;20.20;18.10;;;;;;;;;;5109736;28;20553;-10
2021/03/02 05:43:55;;;;;;;17.13;15.63;;;;;;;;;;5112620;28;20658;-12
2021/03/02 05:46:25;;;;;;;18.13;16.47;;;;;;;;;;5095847;28;20443;-13
2021/03/02 05:48:53;;;;;;;17.00;15.40;;;;;;;;;;5093526;28;20519;-12
2021/03/02 05:51:23;;;;;;;16.83;15.43;;;;;;;;;;5094960;28;20470;-14
2021/03/02 05:53:51;;;;;;;21.13;18.17;;;;;;;;;;5094100;28;21037;-13
2021/03/02 05:56:18;;;;;;;20.40;16.60;;;;;;;;;;5094064;28;20465;-13
2021/03/02 05:58:46;;;;;;;17.57;15.97;;;;;;;;;;5094277;28;20509;-14
2021/03/02 06:01:14;;;;;;;21.77;19.90;;;;;;;;;;5092715;28;20435;-14
2021/03/02 06:03:44;;;;;;;20.60;18.10;;;;;;;;;;5092878;28;20433;-13
2021/03/02 06:06:12;;;;;;;26.67;19.37;;;;;;;;;;5074609;28;20447;-14
2021/03/02 06:08:40;;;;;;;20.03;17.43;;;;;;;;;;5093058;28;20436;-14
2021/03/02 06:11:24;;;;;;;25.43;18.73;;;;;;;;;;5092891;28;20497;-12
2021/03/02 06:13:53;;;;;;;21.40;19.43;;;;;;;;;;5092686;28;20436;-13
2021/03/02 06:16:21;;;;;;;20.70;18.63;;;;;;;;;;5113752;28;20496;-13
2021/03/02 06:18:49;;;;;;;20.20;18.10;;;;;;;;;;5112865;28;20500;-13
2021/03/02 06:21:19;;;;;;;17.43;15.83;;;;;;;;;;5113177;28;20510;-12
2021/03/02 06:23:47;;;;;;;18.50;16.77;;;;;;;;;;5113971;28;20457;-13
2021/03/02 06:26:24;;;;;;;19.03;16.77;;;;;;;;;;5106445;28;20551;-12
2021/03/02 06:28:52;;;;;;;20.13;17.13;;;;;;;;;;5076261;28;20565;-13
2021/03/02 06:31:38;;;;;;;16.60;14.83;;;;;;;;;;5068019;28;20735;-13
2021/03/02 06:34:16;;;;;;;17.90;16.17;;;;;;;;;;5061400;28;20525;-13
2021/03/02 06:36:58;;;;;;;24.43;17.27;;;;;;;;;;5064201;28;20469;-14
2021/03/02 06:39:31;;;;;;;18.33;16.20;;;;;;;;;;5067699;28;20455;-13
2021/03/02 06:42:12;;;;;;;22.27;18.47;;;;;;;;;;5065542;28;20575;-13
2021/03/02 06:44:41;;;;;;;19.80;16.80;;;;;;;;;;5064256;28;20451;-13
2021/03/02 06:47:09;;;;;;;22.43;15.30;;;;;;;;;;5064430;28;20444;-13
2021/03/02 06:49:40;;;;;;;19.20;15.70;;;;;;;;;;5061997;28;20527;-12
2021/03/02 06:52:14;;;;;;;15.67;13.97;;;;;;;;;;5079371;28;20490;-12
2021/03/02 06:54:43;;;;;;;18.23;15.90;;;;;;;;;;5086380;28;20462;-12
2021/03/02 06:57:11;;;;;;;17.53;14.20;;;;;;;;;;5077778;28;20558;-13
2021/03/02 06:59:39;;;;;;;19.03;15.67;;;;;;;;;;5060143;28;20451;-14
2021/03/02 07:02:08;;;;;;;16.70;14.90;;;;;;;;;;5061284;28;20432;-13
2021/03/02 07:04:36;;;;;;;16.77;14.97;;;;;;;;;;5076675;28;21211;-13
2021/03/02 07:07:17;;;;;;;17.13;15.33;;;;;;;;;;5080592;28;20494;-13
2021/03/02 07:09:48;;;;;;;18.50;16.60;;;;;;;;;;5078106;28;20431;-14
2021/03/02 07:12:17;;;;;;;17.27;15.57;;;;;;;;;;5078026;28;21212;-13
2021/03/02 07:14:46;;;;;;;19.17;15.70;;;;;;;;;;5076450;28;20456;-13
2021/03/02 07:17:15;;;;;;;17.57;15.67;;;;;;;;;;5078563;28;20497;-12
2021/03/02 07:19:44;;;;;;;16.80;15.07;;;;;;;;;;5074127;28;20581;-14
2021/03/02 07:22:14;;;;;;;15.93;14.40;;;;;;;;;;5086679;28;20446;-13
2021/03/02 07:24:43;;;;;;;16.67;15.17;;;;;;;;;;5090135;28;20781;-13
2021/03/02 07:27:12;;;;;;;21.37;17.67;;;;;;;;;;5085771;28;20450;-12
2021/03/02 07:29:40;;;;;;;19.47;17.53;;;;;;;;;;5089315;28;20686;-12
2021/03/02 07:32:09;;;;;;;21.40;17.97;;;;;;;;;;5081029;28;20463;-13
2021/03/02 07:34:38;;;;;;;21.60;17.87;;;;;;;;;;5077842;28;20566;-13
2021/03/02 07:37:06;;;;;;;18.87;16.00;;;;;;;;;;5078829;28;20551;-13
2021/03/02 07:39:34;;;;;;;18.07;16.40;;;;;;;;;;5095970;28;20511;-13
2021/03/02 07:42:03;;;;;;;18.27;16.30;;;;;;;;;;5094575;28;20495;-14
2021/03/02 07:44:53;;;;;;;17.93;16.20;;;;;;;;;;5095031;28;20498;-12
2021/03/02 07:47:41;;;;;;;20.37;17.60;;;;;;;;;;5092201;28;20561;-14
2021/03/02 07:50:39;;;;;;;21.03;17.27;;;;;;;;;;5091648;28;20462;-13
2021/03/02 07:53:24;;;;;;;19.30;17.00;;;;;;;;;;5095887;28;20582;-13
2021/03/02 07:56:10;;;;;;;17.87;16.20;;;;;;;;;;5090172;28;20455;-13
2021/03/02 07:58:39;;;;;;;19.03;17.00;;;;;;;;;;5089446;28;20470;-13
2021/03/02 08:01:18;;;;;;;19.40;17.40;;;;;;;;;;5092299;28;20582;-13
2021/03/02 08:03:47;;;;;;;20.73;17.47;;;;;;;;;;5082933;28;20480;-14
2021/03/02 08:06:32;;;;;;;23.13;19.13;;;;;;;;;;5070047;28;20454;-13
2021/03/02 08:09:20;;;;;;;21.40;18.73;;;;;;;;;;5052446;28;21341;-13
2021/03/02 08:11:48;;;;;;;22.70;19.83;;;;;;;;;;5072714;28;20462;-13
2021/03/02 08:14:33;;;;;;;23.77;19.40;;;;;;;;;;5082060;28;20465;-11
2021/03/02 08:17:03;;;;;;;23.73;20.73;;;;;;;;;;5068053;28;20503;-10
2021/03/02 08:19:43;;;;;;;25.77;20.37;;;;;;;;;;5070044;28;20455;-11
2021/03/02 08:22:32;;;;;;;24.37;19.23;;;;;;;;;;5069585;28;20494;-9
2021/03/02 08:25:02;;;;;;;23.63;20.03;;;;;;;;;;5062362;28;20565;-11
2021/03/02 08:27:37;;;;;;;24.70;22.10;;;;;;;;;;5059988;28;21174;-12
2021/03/02 08:30:11;;;;;;;27.80;20.87;;;;;;;;;;5065616;27;20896;-10
2021/03/02 08:32:40;;;;;;;25.00;20.73;;;;;;;;;;5059222;28;20624;-10
2021/03/02 08:35:10;;;;;;;26.17;22.13;;;;;;;;;;5058420;28;20435;-10
2021/03/02 08:37:42;;;;;;;24.40;21.30;;;;;;;;;;5061735;28;20859;-12
2021/03/02 08:40:10;;;;;;;28.17;19.77;;;;;;;;;;5059138;28;20447;-13
2021/03/02 08:42:39;;;;;;;22.83;18.57;;;;;;;;;;5067348;28;21050;-12
2021/03/02 08:45:12;;;;;;;22.23;19.30;;;;;;;;;;5065593;28;20584;-12
2021/03/02 08:47:40;;;;;;;19.83;17.73;;;;;;;;;;5064074;28;20432;-12
2021/03/02 08:50:09;;;;;;;22.10;19.57;;;;;;;;;;5064920;28;20439;-12
2021/03/02 08:52:37;;;;;;;22.23;19.50;;;;;;;;;;5062304;28;21062;-12
2021/03/02 08:55:06;;;;;;;21.50;19.40;;;;;;;;;;5057614;28;20485;-12
2021/03/02 08:57:43;;;;;;;22.50;19.03;;;;;;;;;;5060245;28;20464;-12
2021/03/02 09:00:17;;;;;;;20.87;18.50;;;;;;;;;;5057904;28;20520;-10
2021/03/02 09:02:46;;;;;;;19.33;17.43;;;;;;;;;;5055873;28;20459;-12
2021/03/02 09:05:17;;;;;;;21.70;19.33;;;;;;;;;;5066170;28;20788;-12
2021/03/02 09:07:58;;;;;;;20.57;18.33;;;;;;;;;;5069612;28;20431;-12
2021/03/02 09:10:26;;;;;;;21.27;18.70;;;;;;;;;;5053167;28;20494;-11
2021/03/02 09:12:54;;;;;;;23.33;19.97;;;;;;;;;;5033641;28;20444;-11
2021/03/02 09:15:39;;;;;;;21.50;19.23;;;;;;;;;;5058214;28;20872;-10
2021/03/02 09:18:16;;;;;;;23.80;19.43;;;;;;;;;;5035339;28;20469;-11
2021/03/02 09:20:49;;;;;;;23.23;19.23;;;;;;;;;;5032378;28;20894;-11
2021/03/02 09:23:18;;;;;;;20.50;18.60;;;;;;;;;;5035766;28;20464;-10
2021/03/02 09:25:45;;;;;;;24.10;18.80;;;;;;;;;;5053820;28;20455;-11
2021/03/02 09:28:17;;;;;;;22.60;20.40;;;;;;;;;;5048063;28;20778;-12
2021/03/02 09:30:45;;;;;;;19.67;17.60;;;;;;;;;;5049926;28;20451;-12
2021/03/02 09:33:15;;;;;;;19.73;17.73;;;;;;;;;;5052990;28;20481;-12
2021/03/02 09:35:42;;;;;;;22.90;18.30;;;;;;;;;;5048003;28;20707;-13
2021/03/02 09:38:30;;;;;;;21.43;19.33;;;;;;;;;;5050064;28;21015;-12
2021/03/02 09:40:59;;;;;;;20.90;18.70;;;;;;;;;;5053846;28;20504;-11
2021/03/02 09:43:34;;;;;;;19.97;17.97;;;;;;;;;;5055613;28;20462;-12
2021/03/02 09:46:01;;;;;;;20.67;18.60;;;;;;;;;;5055954;28;20543;-11
2021/03/02 09:48:45;;;;;;;19.27;17.47;;;;;;;;;;5053710;28;20486;-10
2021/03/02 09:51:31;;;;;;;22.67;20.27;;;;;;;;;;5067545;28;20434;-11
2021/03/02 09:54:17;;;;;;;23.20;19.90;;;;;;;;;;5087045;28;20453;-12
2021/03/02 09:56:45;;;;;;;21.27;18.97;;;;;;;;;;5096887;28;20460;-13
2021/03/02 09:59:20;;;;;;;22.27;19.97;;;;;;;;;;5094955;28;20528;-12
2021/03/02 10:01:49;;;;;;;20.60;18.47;;;;;;;;;;5091125;28;20475;-13
2021/03/02 10:04:18;;;;;;;22.83;20.50;;;;;;;;;;5094196;28;20453;-12
2021/03/02 10:06:47;;;;;;;22.00;19.70;;;;;;;;;;5093626;28;20468;-12
2021/03/02 10:09:19;;;;;;;21.77;18.77;;;;;;;;;;5096959;28;20435;-12
2021/03/02 10:11:46;;;;;;;20.70;18.53;;;;;;;;;;5102641;28;20454;-13
2021/03/02 10:14:14;;;;;;;22.20;19.97;;;;;;;;;;5098905;27;20612;-10
2021/03/02 10:16:48;;;;;;;21.33;19.33;;;;;;;;;;5088051;27;21335;-11
2021/03/02 10:19:17;;;;;;;24.33;21.47;;;;;;;;;;5078086;27;20769;-11
2021/03/02 10:21:48;;;;;;;25.03;22.37;;;;;;;;;;5094889;27;20576;-11
2021/03/02 10:24:19;;;;;;;21.73;19.57;;;;;;;;;;5063768;27;20867;-13
2021/03/02 10:26:48;;;;;;;21.80;19.50;;;;;;;;;;5055085;28;20471;-11
2021/03/02 10:29:15;;;;;;;22.47;20.17;;;;;;;;;;5087008;27;20491;-12
2021/03/02 10:31:44;;;;;;;22.73;20.60;;;;;;;;;;5072678;27;21115;-10
2021/03/02 10:34:13;;;;;;;20.73;18.73;;;;;;;;;;5069792;27;20440;-10
2021/03/02 10:36:42;;;;;;;26.73;20.93;;;;;;;;;;5061033;28;21458;-10
2021/03/02 10:39:11;;;;;;;23.93;21.53;;;;;;;;;;5055333;28;20507;-11
2021/03/02 10:41:40;;;;;;;24.03;21.70;;;;;;;;;;5054888;28;20444;-12
2021/03/02 10:44:11;;;;;;;24.20;21.83;;;;;;;;;;5063780;28;20443;-13
2021/03/02 10:46:41;;;;;;;21.80;19.57;;;;;;;;;;5111515;28;20506;-11
2021/03/02 10:49:09;;;;;;;22.43;20.13;;;;;;;;;;5094646;28;20911;-14
2021/03/02 10:51:38;;;;;;;21.63;19.60;;;;;;;;;;5082047;28;20544;-13
2021/03/02 10:54:07;;;;;;;22.73;20.33;;;;;;;;;;5071833;28;20459;-14
2021/03/02 10:56:40;;;;;;;20.87;18.80;;;;;;;;;;5078780;28;20743;-12
2021/03/02 10:59:07;;;;;;;20.47;18.47;;;;;;;;;;5045938;28;20444;-14
2021/03/02 11:01:36;;;;;;;24.80;22.20;;;;;;;;;;5075397;28;20458;-13
2021/03/02 11:04:04;;;;;;;23.33;20.63;;;;;;;;;;5081462;28;20943;-14
2021/03/02 11:06:32;;;;;;;20.67;18.63;;;;;;;;;;5097526;27;20445;-14
2021/03/02 11:09:02;;;;;;;21.67;19.77;;;;;;;;;;5129222;27;20437;-13
2021/03/02 11:11:30;;;;;;;20.87;18.83;;;;;;;;;;5097489;27;20438;-13
2021/03/02 11:14:01;;;;;;;18.70;17.00;;;;;;;;;;5096042;27;20442;-14
2021/03/02 11:16:30;;;;;;;18.63;16.83;;;;;;;;;;5104398;27;20555;-13
2021/03/02 11:18:58;;;;;;;19.40;17.70;;;;;;;;;;5087102;27;20522;-14
2021/03/02 11:21:30;;;;;;;18.63;16.80;;;;;;;;;;5084288;27;20434;-14
2021/03/02 11:23:59;;;;;;;18.60;16.77;;;;;;;;;;5105159;27;20465;-14
2021/03/02 11:26:28;;;;;;;19.17;17.37;;;;;;;;;;5087084;27;20460;-13
2021/03/02 11:28:55;;;;;;;17.87;16.33;;;;;;;;;;5086233;28;20471;-13
2021/03/02 11:31:24;;;;;;;19.10;17.30;;;;;;;;;;5084762;28;20517;-13
2021/03/02 11:33:51;;;;;;;17.87;16.07;;;;;;;;;;5086556;28;20731;-14
2021/03/02 11:36:19;;;;;;;20.50;18.37;;;;;;;;;;5084527;28;20427;-14
2021/03/02 11:38:47;;;;;;;17.70;16.10;;;;;;;;;;5084856;28;20499;-14
2021/03/02 11:41:15;;;;;;;18.30;16.63;;;;;;;;;;5066794;28;20446;-14
2021/03/02 11:43:44;;;;;;;19.17;17.20;;;;;;;;;;5089837;27;20498;-14
2021/03/02 11:46:11;;;;;;;18.13;16.43;;;;;;;;;;5085873;28;20466;-14
2021/03/02 11:48:40;;;;;;;18.43;16.27;;;;;;;;;;5082589;28;20434;-15
2021/03/02 11:51:18;;;;;;;19.47;17.57;;;;;;;;;;5082526;28;20466;-13
2021/03/02 11:53:49;;;;;;;18.30;16.50;;;;;;;;;;5077938;28;20483;-12
2021/03/02 11:56:17;;;;;;;17.63;16.07;;;;;;;;;;5057943;28;20431;-13
2021/03/02 11:58:44;;;;;;;18.53;16.93;;;;;;;;;;5058918;28;20498;-9
2021/03/02 12:01:12;;;;;;;20.20;18.40;;;;;;;;;;5058780;28;21337;-10
2021/03/02 12:03:41;;;;;;;16.63;15.23;;;;;;;;;;5064816;28;20547;-10
2021/03/02 12:06:09;;;;;;;19.07;17.40;;;;;;;;;;5076694;28;20462;-11
2021/03/02 12:08:37;;;;;;;18.87;17.00;;;;;;;;;;5070106;28;20600;-12
2021/03/02 12:11:05;;;;;;;18.23;16.70;;;;;;;;;;5061386;28;20937;-12
2021/03/02 12:13:33;;;;;;;19.63;17.83;;;;;;;;;;5058495;28;21106;-11
2021/03/02 12:16:01;;;;;;;17.93;16.47;;;;;;;;;;5059743;28;20564;-12
2021/03/02 12:18:29;;;;;;;19.20;17.40;;;;;;;;;;5059169;28;20482;-12
2021/03/02 12:20:58;;;;;;;19.33;17.73;;;;;;;;;;5057231;28;20440;-12
2021/03/02 12:23:25;;;;;;;18.83;17.00;;;;;;;;;;5059720;28;20463;-11
2021/03/02 12:25:53;;;;;;;17.93;16.33;;;;;;;;;;5039953;28;20566;-13
2021/03/02 12:28:21;;;;;;;19.03;17.13;;;;;;;;;;5056083;28;20539;-11
2021/03/02 12:30:48;;;;;;;19.27;17.43;;;;;;;;;;5039828;28;20499;-11
2021/03/02 12:33:16;;;;;;;18.93;17.03;;;;;;;;;;5047661;28;20471;-12
2021/03/02 12:35:45;;;;;;;19.03;17.27;;;;;;;;;;5060853;28;20451;-11
2021/03/02 12:38:16;;;;;;;18.97;17.00;;;;;;;;;;5062699;28;20466;-11
2021/03/02 12:40:44;;;;;;;19.63;17.73;;;;;;;;;;5056158;28;20436;-11
2021/03/02 12:43:13;;;;;;;17.67;16.00;;;;;;;;;;5054022;28;20452;-12
2021/03/02 12:45:41;;;;;;;20.03;16.27;;;;;;;;;;5039393;28;20429;-12
2021/03/02 12:48:08;;;;;;;17.97;16.30;;;;;;;;;;5041995;28;20452;-13
2021/03/02 12:50:37;;;;;;;18.27;16.57;;;;;;;;;;5068952;28;21032;-12
2021/03/02 12:53:06;;;;;;;19.40;17.70;;;;;;;;;;5038579;28;20529;-13
2021/03/02 12:55:34;;;;;;;19.17;17.30;;;;;;;;;;5055928;28;20521;-12
2021/03/02 12:58:02;;;;;;;17.30;15.80;;;;;;;;;;5062066;28;20834;-12
2021/03/02 13:00:30;;;;;;;17.33;16.03;;;;;;;;;;5078885;28;20455;-12
2021/03/02 13:02:59;;;;;;;19.97;18.30;;;;;;;;;;5081625;28;20439;-13
2021/03/02 13:05:28;;;;;;;17.60;16.20;;;;;;;;;;5077942;28;20526;-12
2021/03/02 13:07:56;;;;;;;16.90;15.10;;;;;;;;;;5081293;28;20454;-12
2021/03/02 13:10:26;;;;;;;17.33;15.67;;;;;;;;;;5085644;28;20435;-11
2021/03/02 13:12:57;;;;;;;17.07;15.60;;;;;;;;;;5084378;28;20810;-14
2021/03/02 13:15:26;;;;;;;15.90;14.27;;;;;;;;;;5080196;28;20499;-12
2021/03/02 13:17:54;;;;;;;19.83;15.00;;;;;;;;;;5079713;28;20570;-11
2021/03/02 13:20:22;;;;;;;16.03;14.53;;;;;;;;;;5074996;28;20466;-11
2021/03/02 13:22:50;;;;;;;14.73;13.43;;;;;;;;;;5050726;28;20755;-10
2021/03/02 13:25:18;;;;;;;14.87;13.63;;;;;;;;;;5061414;28;20593;-12
2021/03/02 13:27:47;;;;;;;14.13;12.93;;;;;;;;;;5058057;28;20451;-11
2021/03/02 13:30:19;;;;;;;15.60;14.20;;;;;;;;;;5042721;28;20452;-10
2021/03/02 13:32:52;;;;;;;13.80;12.70;;;;;;;;;;5063274;28;20462;-12
2021/03/02 13:35:20;;;;;;;14.20;12.80;;;;;;;;;;5077741;28;20484;-11
2021/03/02 13:37:48;;;;;;;13.87;12.60;;;;;;;;;;5079808;28;20776;-11
2021/03/02 13:40:17;;;;;;;13.60;12.60;;;;;;;;;;5076525;28;20453;-12
2021/03/02 13:42:48;;;;;;;14.00;12.90;;;;;;;;;;5077434;28;20431;-11
2021/03/02 13:45:18;;;;;;;14.17;13.07;;;;;;;;;;5067495;28;20574;-12
2021/03/02 13:47:50;;;;;;;12.30;11.40;;;;;;;;;;5058654;28;20440;-12
2021/03/02 13:50:19;;;;;;;12.37;11.37;;;;;;;;;;5056940;28;20467;-12
2021/03/02 13:52:48;;;;;;;14.03;12.73;;;;;;;;;;5058312;28;20439;-12
2021/03/02 13:55:17;;;;;;;12.47;11.47;;;;;;;;;;5077923;28;20447;-11
2021/03/02 13:57:45;;;;;;;13.50;12.33;;;;;;;;;;5079362;28;20950;-14
2021/03/02 14:00:14;;;;;;;12.43;11.43;;;;;;;;;;5071611;28;20474;-12
2021/03/02 14:02:45;;;;;;;12.37;11.47;;;;;;;;;;5057654;28;20448;-10
2021/03/02 14:05:13;;;;;;;13.57;12.50;;;;;;;;;;5058465;28;20513;-12
2021/03/02 14:07:43;;;;;;;12.43;11.30;;;;;;;;;;5080258;28;20495;-13
2021/03/02 14:10:11;;;;;;;13.87;12.60;;;;;;;;;;5064042;28;20499;-13
2021/03/02 14:12:40;;;;;;;14.33;13.03;;;;;;;;;;5064083;28;20445;-13
2021/03/02 14:15:08;;;;;;;12.47;11.57;;;;;;;;;;5082386;28;20461;-13
2021/03/02 14:17:36;;;;;;;13.63;12.60;;;;;;;;;;5080487;28;20902;-12
2021/03/02 14:20:06;;;;;;;13.60;12.50;;;;;;;;;;5079392;28;20443;-11
2021/03/02 14:22:34;;;;;;;11.30;10.50;;;;;;;;;;5076177;28;20452;-12
2021/03/02 14:25:03;;;;;;;12.10;11.10;;;;;;;;;;5083821;28;20543;-12
2021/03/02 14:27:31;;;;;;;13.83;12.70;;;;;;;;;;5058798;28;20440;-11
2021/03/02 14:29:59;;;;;;;13.03;11.83;;;;;;;;;;5065198;28;20440;-13
2021/03/02 14:32:28;;;;;;;13.43;12.10;;;;;;;;;;5063834;28;20490;-12
2021/03/02 14:34:56;;;;;;;13.03;12.03;;;;;;;;;;5062943;28;20436;-12
2021/03/02 14:37:28;;;;;;;13.37;12.33;;;;;;;;;;5057948;28;20475;-12
2021/03/02 14:39:55;;;;;;;13.97;12.87;;;;;;;;;;5061664;28;20459;-10
2021/03/02 14:42:35;;;;;;;13.20;12.27;;;;;;;;;;5066869;28;20795;-12
2021/03/02 14:45:03;;;;;;;13.57;12.33;;;;;;;;;;5042863;28;20443;-11